sensor_id;sensor_type;location;lat;lon;timestamp;pressure;altitude;pressure_sealevel;temperature;humidity
62847;BME280;49477;35.676;139.586;2023-05-14T00:01:22;101299.10;;;24.54;37.28
62847;BME280;49477;35.676;139.586;2023-05-14T00:03:52;101290.89;;;24.72;37.06
62847;BME280;49477;35.676;139.586;2023-05-14T00:06:21;101288.72;;;24.83;36.89
62847;BME280;49477;35.676;139.586;2023-05-14T00:08:51;101282.84;;;24.61;37.10
62847;BME280;49477;35.676;139.586;2023-05-14T00:11:20;101274.24;;;24.59;36.83
62847;BME280;49477;35.676;139.586;2023-05-14T00:13:50;101267.20;;;24.53;36.77
62847;BME280;49477;35.676;139.586;2023-05-14T00:16:18;101271.61;;;24.91;36.39
62847;BME280;49477;35.676;139.586;2023-05-14T00:18:48;101276.30;;;24.83;36.61
62847;BME280;49477;35.676;139.586;2023-05-14T00:21:18;101284.37;;;24.94;36.49
62847;BME280;49477;35.676;139.586;2023-05-14T00:23:47;101271.45;;;25.00;36.34
62847;BME280;49477;35.676;139.586;2023-05-14T00:26:17;101271.41;;;24.90;36.36
62847;BME280;49477;35.676;139.586;2023-05-14T00:28:46;101265.28;;;25.06;36.03
62847;BME280;49477;35.676;139.586;2023-05-14T00:31:15;101277.94;;;24.64;36.03
62847;BME280;49477;35.676;139.586;2023-05-14T00:33:45;101283.54;;;24.76;36.08
62847;BME280;49477;35.676;139.586;2023-05-14T00:36:13;101281.30;;;25.09;35.91
62847;BME280;49477;35.676;139.586;2023-05-14T00:38:43;101279.21;;;24.89;35.74
62847;BME280;49477;35.676;139.586;2023-05-14T00:41:13;101276.79;;;24.72;35.84
62847;BME280;49477;35.676;139.586;2023-05-14T00:43:42;101278.24;;;25.25;35.94
62847;BME280;49477;35.676;139.586;2023-05-14T00:46:11;101282.45;;;25.35;36.07
62847;BME280;49477;35.676;139.586;2023-05-14T00:48:42;101280.57;;;25.15;36.01
62847;BME280;49477;35.676;139.586;2023-05-14T00:51:11;101282.44;;;24.87;36.08
62847;BME280;49477;35.676;139.586;2023-05-14T00:53:41;101282.29;;;25.39;36.40
62847;BME280;49477;35.676;139.586;2023-05-14T00:56:10;101287.06;;;24.80;36.23
62847;BME280;49477;35.676;139.586;2023-05-14T00:58:40;101285.78;;;25.05;35.87
62847;BME280;49477;35.676;139.586;2023-05-14T01:01:09;101286.79;;;25.20;35.80
62847;BME280;49477;35.676;139.586;2023-05-14T01:03:39;101283.84;;;25.06;35.99
62847;BME280;49477;35.676;139.586;2023-05-14T01:06:14;101277.74;;;25.10;35.69
62847;BME280;49477;35.676;139.586;2023-05-14T01:08:52;101275.42;;;25.08;35.54
62847;BME280;49477;35.676;139.586;2023-05-14T01:11:28;101275.41;;;25.22;35.32
62847;BME280;49477;35.676;139.586;2023-05-14T01:14:09;101272.31;;;25.16;35.71
62847;BME280;49477;35.676;139.586;2023-05-14T01:16:43;101269.28;;;24.76;35.52
62847;BME280;49477;35.676;139.586;2023-05-14T01:19:24;101274.07;;;25.00;35.54
62847;BME280;49477;35.676;139.586;2023-05-14T01:21:55;101275.55;;;24.95;35.45
62847;BME280;49477;35.676;139.586;2023-05-14T01:24:24;101272.83;;;25.34;35.66
62847;BME280;49477;35.676;139.586;2023-05-14T01:26:54;101274.17;;;24.84;35.54
62847;BME280;49477;35.676;139.586;2023-05-14T01:29:27;101274.76;;;25.32;35.67
62847;BME280;49477;35.676;139.586;2023-05-14T01:31:57;101271.21;;;25.11;35.52
62847;BME280;49477;35.676;139.586;2023-05-14T01:34:30;101267.70;;;25.25;35.21
62847;BME280;49477;35.676;139.586;2023-05-14T01:37:00;101261.15;;;25.29;35.44
62847;BME280;49477;35.676;139.586;2023-05-14T01:39:31;101266.71;;;24.99;35.57
62847;BME280;49477;35.676;139.586;2023-05-14T01:42:02;101265.54;;;24.81;35.59
62847;BME280;49477;35.676;139.586;2023-05-14T01:44:32;101267.45;;;25.03;35.59
62847;BME280;49477;35.676;139.586;2023-05-14T01:47:01;101267.36;;;24.83;35.87
62847;BME280;49477;35.676;139.586;2023-05-14T01:49:30;101263.60;;;24.86;35.93
62847;BME280;49477;35.676;139.586;2023-05-14T01:52:00;101257.61;;;24.82;36.40
62847;BME280;49477;35.676;139.586;2023-05-14T01:54:29;101245.23;;;24.94;36.58
62847;BME280;49477;35.676;139.586;2023-05-14T01:56:58;101246.12;;;24.60;37.16
62847;BME280;49477;35.676;139.586;2023-05-14T01:59:28;101243.36;;;24.84;37.30
62847;BME280;49477;35.676;139.586;2023-05-14T02:01:57;101245.42;;;24.92;37.77
62847;BME280;49477;35.676;139.586;2023-05-14T02:04:27;101237.81;;;24.52;38.58
62847;BME280;49477;35.676;139.586;2023-05-14T02:06:56;101239.94;;;24.56;37.55
62847;BME280;49477;35.676;139.586;2023-05-14T02:09:26;101239.58;;;24.26;39.15
62847;BME280;49477;35.676;139.586;2023-05-14T02:11:55;101236.75;;;24.73;38.43
62847;BME280;49477;35.676;139.586;2023-05-14T02:14:25;101233.28;;;24.96;38.86
62847;BME280;49477;35.676;139.586;2023-05-14T02:16:54;101229.74;;;24.58;38.30
62847;BME280;49477;35.676;139.586;2023-05-14T02:19:24;101219.92;;;25.03;39.34
62847;BME280;49477;35.676;139.586;2023-05-14T02:21:53;101216.38;;;24.78;40.10
62847;BME280;49477;35.676;139.586;2023-05-14T02:24:23;101212.71;;;25.21;38.61
62847;BME280;49477;35.676;139.586;2023-05-14T02:26:52;101208.10;;;25.08;39.77
62847;BME280;49477;35.676;139.586;2023-05-14T02:29:21;101202.70;;;25.47;40.45
62847;BME280;49477;35.676;139.586;2023-05-14T02:31:51;101198.26;;;25.86;38.18
62847;BME280;49477;35.676;139.586;2023-05-14T02:34:20;101188.34;;;25.43;37.85
62847;BME280;49477;35.676;139.586;2023-05-14T02:36:49;101185.95;;;25.29;38.97
62847;BME280;49477;35.676;139.586;2023-05-14T02:39:24;101181.10;;;25.18;39.69
62847;BME280;49477;35.676;139.586;2023-05-14T02:41:55;101176.04;;;25.31;38.68
62847;BME280;49477;35.676;139.586;2023-05-14T02:44:25;101173.98;;;25.12;39.13
62847;BME280;49477;35.676;139.586;2023-05-14T02:46:55;101173.53;;;25.29;38.75
62847;BME280;49477;35.676;139.586;2023-05-14T02:49:25;101171.27;;;25.26;38.75
62847;BME280;49477;35.676;139.586;2023-05-14T02:51:54;101172.19;;;25.40;38.51
62847;BME280;49477;35.676;139.586;2023-05-14T02:54:23;101166.76;;;25.47;38.07
62847;BME280;49477;35.676;139.586;2023-05-14T02:56:53;101164.59;;;25.41;37.79
62847;BME280;49477;35.676;139.586;2023-05-14T02:59:23;101155.87;;;25.58;37.86
62847;BME280;49477;35.676;139.586;2023-05-14T03:01:52;101158.13;;;25.66;37.61
62847;BME280;49477;35.676;139.586;2023-05-14T03:04:21;101151.36;;;25.61;37.49
62847;BME280;49477;35.676;139.586;2023-05-14T03:06:50;101147.73;;;25.74;37.23
62847;BME280;49477;35.676;139.586;2023-05-14T03:09:20;101143.16;;;25.81;37.03
62847;BME280;49477;35.676;139.586;2023-05-14T03:11:50;101133.29;;;25.92;36.94
62847;BME280;49477;35.676;139.586;2023-05-14T03:14:19;101125.61;;;26.14;37.18
62847;BME280;49477;35.676;139.586;2023-05-14T03:16:49;101121.79;;;25.91;36.62
62847;BME280;49477;35.676;139.586;2023-05-14T03:19:18;101119.35;;;25.90;36.66
62847;BME280;49477;35.676;139.586;2023-05-14T03:21:47;101114.62;;;25.84;36.68
62847;BME280;49477;35.676;139.586;2023-05-14T03:24:16;101114.84;;;25.93;36.33
62847;BME280;49477;35.676;139.586;2023-05-14T03:26:45;101113.99;;;25.75;36.21
62847;BME280;49477;35.676;139.586;2023-05-14T03:29:15;101108.99;;;25.90;35.81
62847;BME280;49477;35.676;139.586;2023-05-14T03:31:44;101111.18;;;25.45;35.58
62847;BME280;49477;35.676;139.586;2023-05-14T03:34:14;101109.08;;;25.60;35.11
62847;BME280;49477;35.676;139.586;2023-05-14T03:36:43;101103.40;;;25.39;34.83
62847;BME280;49477;35.676;139.586;2023-05-14T03:39:13;101103.40;;;25.93;34.69
62847;BME280;49477;35.676;139.586;2023-05-14T03:41:42;101101.67;;;25.91;34.93
62847;BME280;49477;35.676;139.586;2023-05-14T03:44:12;101096.98;;;25.81;34.89
62847;BME280;49477;35.676;139.586;2023-05-14T03:46:42;101100.23;;;25.95;34.61
62847;BME280;49477;35.676;139.586;2023-05-14T03:49:11;101104.51;;;25.34;34.28
62847;BME280;49477;35.676;139.586;2023-05-14T03:51:40;101097.67;;;25.86;34.24
62847;BME280;49477;35.676;139.586;2023-05-14T03:54:10;101095.96;;;25.35;34.00
62847;BME280;49477;35.676;139.586;2023-05-14T03:56:39;101087.55;;;25.98;33.90
62847;BME280;49477;35.676;139.586;2023-05-14T03:59:09;101089.42;;;25.68;34.11
62847;BME280;49477;35.676;139.586;2023-05-14T04:01:38;101082.47;;;25.10;33.90
62847;BME280;49477;35.676;139.586;2023-05-14T04:04:08;101081.28;;;25.59;33.68
62847;BME280;49477;35.676;139.586;2023-05-14T04:06:37;101076.13;;;25.69;33.66
62847;BME280;49477;35.676;139.586;2023-05-14T04:09:07;101068.37;;;25.52;33.49
62847;BME280;49477;35.676;139.586;2023-05-14T04:11:36;101063.03;;;25.84;33.42
62847;BME280;49477;35.676;139.586;2023-05-14T04:14:06;101061.63;;;25.39;33.28
62847;BME280;49477;35.676;139.586;2023-05-14T04:16:35;101055.05;;;25.72;33.56
62847;BME280;49477;35.676;139.586;2023-05-14T04:19:04;101055.08;;;25.61;33.60
62847;BME280;49477;35.676;139.586;2023-05-14T04:21:34;101051.79;;;25.91;33.44
62847;BME280;49477;35.676;139.586;2023-05-14T04:24:04;101047.03;;;25.87;33.31
62847;BME280;49477;35.676;139.586;2023-05-14T04:26:33;101045.16;;;25.82;33.44
62847;BME280;49477;35.676;139.586;2023-05-14T04:29:02;101041.70;;;26.03;33.71
62847;BME280;49477;35.676;139.586;2023-05-14T04:31:32;101036.54;;;26.47;33.87
62847;BME280;49477;35.676;139.586;2023-05-14T04:34:01;101031.93;;;25.76;33.88
62847;BME280;49477;35.676;139.586;2023-05-14T04:36:31;101029.76;;;26.25;33.73
62847;BME280;49477;35.676;139.586;2023-05-14T04:39:00;101020.34;;;25.82;33.65
62847;BME280;49477;35.676;139.586;2023-05-14T04:41:30;101019.28;;;26.46;33.62
62847;BME280;49477;35.676;139.586;2023-05-14T04:44:01;101020.67;;;26.02;33.89
62847;BME280;49477;35.676;139.586;2023-05-14T04:46:30;101018.45;;;26.17;33.92
62847;BME280;49477;35.676;139.586;2023-05-14T04:49:01;101015.68;;;26.08;33.73
62847;BME280;49477;35.676;139.586;2023-05-14T04:51:30;101018.50;;;26.31;33.75
62847;BME280;49477;35.676;139.586;2023-05-14T04:54:00;101009.64;;;26.25;33.95
62847;BME280;49477;35.676;139.586;2023-05-14T04:56:29;101012.44;;;25.96;34.00
62847;BME280;49477;35.676;139.586;2023-05-14T04:58:59;101005.48;;;26.02;32.87
62847;BME280;49477;35.676;139.586;2023-05-14T05:01:28;100997.91;;;26.14;33.08
62847;BME280;49477;35.676;139.586;2023-05-14T05:03:58;100994.21;;;26.35;32.63
62847;BME280;49477;35.676;139.586;2023-05-14T05:06:27;100993.52;;;26.41;32.94
62847;BME280;49477;35.676;139.586;2023-05-14T05:08:56;100989.03;;;26.16;32.87
62847;BME280;49477;35.676;139.586;2023-05-14T05:11:27;100982.26;;;26.26;32.93
62847;BME280;49477;35.676;139.586;2023-05-14T05:13:56;100976.98;;;26.32;32.99
62847;BME280;49477;35.676;139.586;2023-05-14T05:16:27;100974.95;;;26.23;33.25
62847;BME280;49477;35.676;139.586;2023-05-14T05:18:56;100976.82;;;26.15;33.27
62847;BME280;49477;35.676;139.586;2023-05-14T05:21:26;100966.75;;;26.24;33.34
62847;BME280;49477;35.676;139.586;2023-05-14T05:23:55;100974.41;;;26.35;33.01
62847;BME280;49477;35.676;139.586;2023-05-14T05:26:25;100976.58;;;26.54;32.79
62847;BME280;49477;35.676;139.586;2023-05-14T05:28:54;100972.80;;;26.38;32.84
62847;BME280;49477;35.676;139.586;2023-05-14T05:31:24;100969.02;;;26.24;32.71
62847;BME280;49477;35.676;139.586;2023-05-14T05:33:53;100973.73;;;26.48;32.31
62847;BME280;49477;35.676;139.586;2023-05-14T05:36:23;100966.54;;;26.50;32.00
62847;BME280;49477;35.676;139.586;2023-05-14T05:38:52;100957.80;;;26.47;32.36
62847;BME280;49477;35.676;139.586;2023-05-14T05:41:21;100951.83;;;26.19;32.21
62847;BME280;49477;35.676;139.586;2023-05-14T05:43:56;100954.25;;;26.07;32.37
62847;BME280;49477;35.676;139.586;2023-05-14T05:46:24;100955.46;;;26.72;32.28
62847;BME280;49477;35.676;139.586;2023-05-14T05:48:54;100952.59;;;26.48;32.24
62847;BME280;49477;35.676;139.586;2023-05-14T05:51:24;100944.99;;;26.55;32.19
62847;BME280;49477;35.676;139.586;2023-05-14T05:53:53;100945.31;;;26.35;32.12
62847;BME280;49477;35.676;139.586;2023-05-14T05:56:22;100947.54;;;26.52;32.32
62847;BME280;49477;35.676;139.586;2023-05-14T05:58:52;100937.56;;;26.56;32.06
62847;BME280;49477;35.676;139.586;2023-05-14T06:01:21;100938.12;;;26.45;32.42
62847;BME280;49477;35.676;139.586;2023-05-14T06:03:51;100947.01;;;26.02;32.56
62847;BME280;49477;35.676;139.586;2023-05-14T06:06:20;100948.03;;;26.08;32.40
62847;BME280;49477;35.676;139.586;2023-05-14T06:08:50;100949.14;;;26.26;32.69
62847;BME280;49477;35.676;139.586;2023-05-14T06:11:19;100952.02;;;26.21;32.84
62847;BME280;49477;35.676;139.586;2023-05-14T06:13:49;100955.33;;;25.92;32.63
62847;BME280;49477;35.676;139.586;2023-05-14T06:16:18;100957.13;;;26.04;33.61
62847;BME280;49477;35.676;139.586;2023-05-14T06:18:49;100952.75;;;26.74;33.86
62847;BME280;49477;35.676;139.586;2023-05-14T06:21:18;100951.41;;;26.07;34.44
62847;BME280;49477;35.676;139.586;2023-05-14T06:23:48;100952.02;;;25.83;34.68
62847;BME280;49477;35.676;139.586;2023-05-14T06:26:17;100952.65;;;25.71;34.64
62847;BME280;49477;35.676;139.586;2023-05-14T06:28:47;100960.00;;;25.94;34.88
62847;BME280;49477;35.676;139.586;2023-05-14T06:31:17;100965.52;;;25.73;35.16
62847;BME280;49477;35.676;139.586;2023-05-14T06:33:46;100977.51;;;25.52;36.30
62847;BME280;49477;35.676;139.586;2023-05-14T06:36:15;100978.30;;;25.33;37.43
62847;BME280;49477;35.676;139.586;2023-05-14T06:38:44;100973.26;;;25.21;38.38
62847;BME280;49477;35.676;139.586;2023-05-14T06:41:14;100979.91;;;25.26;38.71
62847;BME280;49477;35.676;139.586;2023-05-14T06:43:43;100982.20;;;25.14;38.99
62847;BME280;49477;35.676;139.586;2023-05-14T06:46:13;100988.15;;;25.09;39.59
62847;BME280;49477;35.676;139.586;2023-05-14T06:48:42;100985.80;;;25.17;39.00
62847;BME280;49477;35.676;139.586;2023-05-14T06:51:12;100981.02;;;25.29;39.59
62847;BME280;49477;35.676;139.586;2023-05-14T06:53:42;100987.43;;;24.93;39.83
62847;BME280;49477;35.676;139.586;2023-05-14T06:56:11;100988.87;;;25.06;40.38
62847;BME280;49477;35.676;139.586;2023-05-14T06:58:40;100985.75;;;24.77;39.64
62847;BME280;49477;35.676;139.586;2023-05-14T07:01:10;100982.46;;;24.74;39.69
62847;BME280;49477;35.676;139.586;2023-05-14T07:03:39;100980.34;;;25.12;39.70
62847;BME280;49477;35.676;139.586;2023-05-14T07:06:09;100983.70;;;24.93;39.51
62847;BME280;49477;35.676;139.586;2023-05-14T07:08:38;100985.03;;;25.17;39.86
62847;BME280;49477;35.676;139.586;2023-05-14T07:11:08;100987.11;;;25.18;39.65
62847;BME280;49477;35.676;139.586;2023-05-14T07:13:37;100988.84;;;24.73;40.38
62847;BME280;49477;35.676;139.586;2023-05-14T07:16:07;100990.70;;;24.95;40.74
62847;BME280;49477;35.676;139.586;2023-05-14T07:18:36;100994.53;;;24.94;40.45
62847;BME280;49477;35.676;139.586;2023-05-14T07:21:06;100990.79;;;24.59;41.38
62847;BME280;49477;35.676;139.586;2023-05-14T07:23:36;100988.28;;;24.39;41.83
62847;BME280;49477;35.676;139.586;2023-05-14T07:26:06;100987.83;;;24.07;42.42
62847;BME280;49477;35.676;139.586;2023-05-14T07:28:35;100997.18;;;24.28;42.95
62847;BME280;49477;35.676;139.586;2023-05-14T07:31:04;101001.30;;;24.32;43.37
62847;BME280;49477;35.676;139.586;2023-05-14T07:33:33;101010.56;;;24.28;43.54
62847;BME280;49477;35.676;139.586;2023-05-14T07:36:03;101007.94;;;24.29;43.08
62847;BME280;49477;35.676;139.586;2023-05-14T07:38:32;101005.80;;;24.33;42.88
62847;BME280;49477;35.676;139.586;2023-05-14T07:41:01;101004.48;;;24.21;43.27
62847;BME280;49477;35.676;139.586;2023-05-14T07:43:30;101003.09;;;23.74;43.71
62847;BME280;49477;35.676;139.586;2023-05-14T07:46:00;101003.79;;;24.15;42.99
62847;BME280;49477;35.676;139.586;2023-05-14T07:48:29;100999.97;;;24.03;43.13
62847;BME280;49477;35.676;139.586;2023-05-14T07:50:59;101002.65;;;24.18;42.88
62847;BME280;49477;35.676;139.586;2023-05-14T07:53:27;101003.14;;;24.15;43.81
62847;BME280;49477;35.676;139.586;2023-05-14T07:55:57;101006.20;;;23.82;44.00
62847;BME280;49477;35.676;139.586;2023-05-14T07:58:27;101010.41;;;24.02;43.51
62847;BME280;49477;35.676;139.586;2023-05-14T08:00:56;101010.33;;;23.84;43.45
62847;BME280;49477;35.676;139.586;2023-05-14T08:03:25;101006.83;;;23.64;44.12
62847;BME280;49477;35.676;139.586;2023-05-14T08:05:55;101005.67;;;23.71;43.71
62847;BME280;49477;35.676;139.586;2023-05-14T08:08:24;101007.55;;;23.43;44.24
62847;BME280;49477;35.676;139.586;2023-05-14T08:10:54;101007.79;;;23.41;44.29
62847;BME280;49477;35.676;139.586;2023-05-14T08:13:24;101010.43;;;23.31;44.59
62847;BME280;49477;35.676;139.586;2023-05-14T08:15:53;101015.27;;;23.45;43.99
62847;BME280;49477;35.676;139.586;2023-05-14T08:18:23;101010.61;;;23.40;44.28
62847;BME280;49477;35.676;139.586;2023-05-14T08:20:52;101013.17;;;23.51;43.88
62847;BME280;49477;35.676;139.586;2023-05-14T08:23:21;101009.39;;;23.37;44.24
62847;BME280;49477;35.676;139.586;2023-05-14T08:25:51;101006.02;;;23.18;44.28
62847;BME280;49477;35.676;139.586;2023-05-14T08:28:20;101008.08;;;23.38;43.79
62847;BME280;49477;35.676;139.586;2023-05-14T08:30:50;101012.37;;;23.78;43.93
62847;BME280;49477;35.676;139.586;2023-05-14T08:33:19;101015.57;;;23.31;43.86
62847;BME280;49477;35.676;139.586;2023-05-14T08:35:51;101016.84;;;23.49;43.86
62847;BME280;49477;35.676;139.586;2023-05-14T08:38:21;101016.75;;;23.48;43.74
62847;BME280;49477;35.676;139.586;2023-05-14T08:40:55;101019.02;;;23.40;43.25
62847;BME280;49477;35.676;139.586;2023-05-14T08:43:29;101022.85;;;23.50;43.89
62847;BME280;49477;35.676;139.586;2023-05-14T08:46:00;101024.05;;;23.56;44.01
62847;BME280;49477;35.676;139.586;2023-05-14T08:48:32;101025.89;;;23.18;44.69
62847;BME280;49477;35.676;139.586;2023-05-14T08:51:02;101020.61;;;23.19;44.15
62847;BME280;49477;35.676;139.586;2023-05-14T08:53:31;101020.62;;;23.41;44.16
62847;BME280;49477;35.676;139.586;2023-05-14T08:56:02;101021.95;;;23.11;45.15
62847;BME280;49477;35.676;139.586;2023-05-14T08:58:32;101018.02;;;23.08;44.92
62847;BME280;49477;35.676;139.586;2023-05-14T09:01:01;101016.99;;;22.99;44.69
62847;BME280;49477;35.676;139.586;2023-05-14T09:03:31;101013.82;;;23.17;44.57
62847;BME280;49477;35.676;139.586;2023-05-14T09:06:01;101010.54;;;23.01;44.80
62847;BME280;49477;35.676;139.586;2023-05-14T09:08:30;101007.00;;;23.10;44.04
62847;BME280;49477;35.676;139.586;2023-05-14T09:10:59;101008.16;;;23.37;43.99
62847;BME280;49477;35.676;139.586;2023-05-14T09:13:29;101011.09;;;23.02;44.88
62847;BME280;49477;35.676;139.586;2023-05-14T09:15:59;101007.43;;;23.09;44.58
62847;BME280;49477;35.676;139.586;2023-05-14T09:18:28;101011.67;;;22.92;44.50
62847;BME280;49477;35.676;139.586;2023-05-14T09:20:58;101007.67;;;23.14;44.53
62847;BME280;49477;35.676;139.586;2023-05-14T09:23:29;101009.85;;;22.88;45.27
62847;BME280;49477;35.676;139.586;2023-05-14T09:26:03;101008.86;;;22.68;45.72
62847;BME280;49477;35.676;139.586;2023-05-14T09:28:32;101010.13;;;23.14;44.80
62847;BME280;49477;35.676;139.586;2023-05-14T09:31:03;101008.74;;;22.89;44.91
62847;BME280;49477;35.676;139.586;2023-05-14T09:33:32;101008.82;;;23.05;44.50
62847;BME280;49477;35.676;139.586;2023-05-14T09:36:02;101011.73;;;23.05;44.71
62847;BME280;49477;35.676;139.586;2023-05-14T09:38:32;101015.89;;;22.88;45.00
62847;BME280;49477;35.676;139.586;2023-05-14T09:41:01;101012.64;;;22.70;44.85
62847;BME280;49477;35.676;139.586;2023-05-14T09:43:31;101014.81;;;22.90;44.81
62847;BME280;49477;35.676;139.586;2023-05-14T09:46:00;101013.27;;;22.75;44.84
62847;BME280;49477;35.676;139.586;2023-05-14T09:48:29;101011.24;;;22.60;45.76
62847;BME280;49477;35.676;139.586;2023-05-14T09:50:59;101009.54;;;22.50;46.30
62847;BME280;49477;35.676;139.586;2023-05-14T09:53:30;101013.19;;;22.34;46.65
62847;BME280;49477;35.676;139.586;2023-05-14T09:56:01;101014.11;;;22.67;46.18
62847;BME280;49477;35.676;139.586;2023-05-14T09:58:30;101011.44;;;22.50;46.03
62847;BME280;49477;35.676;139.586;2023-05-14T10:01:01;101009.22;;;22.19;46.46
62847;BME280;49477;35.676;139.586;2023-05-14T10:03:31;101000.53;;;22.04;47.12
62847;BME280;49477;35.676;139.586;2023-05-14T10:06:04;100999.41;;;22.10;47.68
62847;BME280;49477;35.676;139.586;2023-05-14T10:08:35;100998.57;;;21.98;47.75
62847;BME280;49477;35.676;139.586;2023-05-14T10:11:13;100995.99;;;22.15;46.89
62847;BME280;49477;35.676;139.586;2023-05-14T10:13:48;100996.33;;;21.92;47.48
62847;BME280;49477;35.676;139.586;2023-05-14T10:16:27;100997.16;;;22.00;47.29
62847;BME280;49477;35.676;139.586;2023-05-14T10:19:08;100996.66;;;22.15;46.83
62847;BME280;49477;35.676;139.586;2023-05-14T10:21:39;101002.66;;;22.27;46.26
62847;BME280;49477;35.676;139.586;2023-05-14T10:24:09;101006.65;;;21.72;46.45
62847;BME280;49477;35.676;139.586;2023-05-14T10:26:40;101008.15;;;22.18;45.76
62847;BME280;49477;35.676;139.586;2023-05-14T10:29:11;101009.68;;;21.94;46.74
62847;BME280;49477;35.676;139.586;2023-05-14T10:31:49;101007.70;;;22.12;46.02
62847;BME280;49477;35.676;139.586;2023-05-14T10:34:37;101010.16;;;22.49;45.62
62847;BME280;49477;35.676;139.586;2023-05-14T10:37:09;101011.93;;;22.29;45.58
62847;BME280;49477;35.676;139.586;2023-05-14T10:39:44;101013.85;;;22.33;45.93
62847;BME280;49477;35.676;139.586;2023-05-14T10:42:15;101016.01;;;22.06;46.05
62847;BME280;49477;35.676;139.586;2023-05-14T10:44:50;101020.58;;;21.78;46.18
62847;BME280;49477;35.676;139.586;2023-05-14T10:47:20;101015.62;;;22.01;46.48
62847;BME280;49477;35.676;139.586;2023-05-14T10:49:52;101015.21;;;21.70;46.72
62847;BME280;49477;35.676;139.586;2023-05-14T10:52:21;101016.70;;;21.89;46.46
62847;BME280;49477;35.676;139.586;2023-05-14T10:54:52;101011.35;;;21.82;46.55
62847;BME280;49477;35.676;139.586;2023-05-14T10:57:24;101008.80;;;21.73;46.53
62847;BME280;49477;35.676;139.586;2023-05-14T10:59:56;100999.71;;;21.43;46.68
62847;BME280;49477;35.676;139.586;2023-05-14T11:02:27;100998.94;;;21.28;46.78
62847;BME280;49477;35.676;139.586;2023-05-14T11:04:59;100997.04;;;21.39;46.79
62847;BME280;49477;35.676;139.586;2023-05-14T11:07:30;100996.96;;;21.58;46.86
62847;BME280;49477;35.676;139.586;2023-05-14T11:10:01;100998.42;;;21.58;47.19
62847;BME280;49477;35.676;139.586;2023-05-14T11:12:32;100997.12;;;21.43;47.42
62847;BME280;49477;35.676;139.586;2023-05-14T11:15:06;100993.57;;;21.48;47.55
62847;BME280;49477;35.676;139.586;2023-05-14T11:17:36;100996.82;;;21.44;47.58
62847;BME280;49477;35.676;139.586;2023-05-14T11:20:06;100998.24;;;21.39;46.66
62847;BME280;49477;35.676;139.586;2023-05-14T11:22:38;100999.80;;;21.60;47.26
62847;BME280;49477;35.676;139.586;2023-05-14T11:25:09;101000.62;;;21.28;47.64
62847;BME280;49477;35.676;139.586;2023-05-14T11:27:39;100998.70;;;21.63;47.40
62847;BME280;49477;35.676;139.586;2023-05-14T11:30:17;101000.19;;;21.42;47.26
62847;BME280;49477;35.676;139.586;2023-05-14T11:32:48;101005.10;;;21.69;47.49
62847;BME280;49477;35.676;139.586;2023-05-14T11:35:18;101002.75;;;21.69;47.62
62847;BME280;49477;35.676;139.586;2023-05-14T11:37:51;101000.17;;;21.75;47.25
62847;BME280;49477;35.676;139.586;2023-05-14T11:40:20;100998.88;;;21.81;47.16
62847;BME280;49477;35.676;139.586;2023-05-14T11:42:51;100996.90;;;21.43;47.70
62847;BME280;49477;35.676;139.586;2023-05-14T11:45:25;100996.39;;;22.05;45.96
62847;BME280;49477;35.676;139.586;2023-05-14T11:47:55;100994.30;;;21.59;47.03
62847;BME280;49477;35.676;139.586;2023-05-14T11:50:24;100990.79;;;21.69;47.40
62847;BME280;49477;35.676;139.586;2023-05-14T11:52:56;100987.04;;;21.40;47.42
62847;BME280;49477;35.676;139.586;2023-05-14T11:55:26;100984.07;;;21.63;47.47
62847;BME280;49477;35.676;139.586;2023-05-14T11:57:56;100979.78;;;21.27;47.82
62847;BME280;49477;35.676;139.586;2023-05-14T12:00:26;100980.72;;;21.56;47.74
62847;BME280;49477;35.676;139.586;2023-05-14T12:02:55;100982.21;;;21.30;47.76
62847;BME280;49477;35.676;139.586;2023-05-14T12:05:25;100983.42;;;21.57;47.74
62847;BME280;49477;35.676;139.586;2023-05-14T12:07:54;100981.94;;;21.07;47.79
62847;BME280;49477;35.676;139.586;2023-05-14T12:10:23;100979.85;;;21.62;47.58
62847;BME280;49477;35.676;139.586;2023-05-14T12:12:53;100974.33;;;21.51;47.61
62847;BME280;49477;35.676;139.586;2023-05-14T12:15:22;100973.40;;;21.60;47.36
62847;BME280;49477;35.676;139.586;2023-05-14T12:17:53;100968.94;;;21.13;47.92
62847;BME280;49477;35.676;139.586;2023-05-14T12:20:23;100965.58;;;21.47;47.67
62847;BME280;49477;35.676;139.586;2023-05-14T12:22:52;100967.28;;;21.00;47.88
62847;BME280;49477;35.676;139.586;2023-05-14T12:25:22;100966.86;;;21.77;46.92
62847;BME280;49477;35.676;139.586;2023-05-14T12:27:53;100970.81;;;21.47;47.29
62847;BME280;49477;35.676;139.586;2023-05-14T12:30:23;100974.47;;;21.95;46.11
62847;BME280;49477;35.676;139.586;2023-05-14T12:32:52;100972.10;;;21.64;46.56
62847;BME280;49477;35.676;139.586;2023-05-14T12:35:21;100970.45;;;21.81;47.29
62847;BME280;49477;35.676;139.586;2023-05-14T12:37:50;100967.40;;;21.33;47.98
62847;BME280;49477;35.676;139.586;2023-05-14T12:40:20;100964.48;;;21.51;48.17
62847;BME280;49477;35.676;139.586;2023-05-14T12:42:50;100966.06;;;21.59;48.05
62847;BME280;49477;35.676;139.586;2023-05-14T12:45:19;100963.44;;;21.54;48.23